createdAt,value
2023-05-18T00:05:18.186Z,85.35
2023-05-18T00:07:46.505Z,85.41
2023-05-18T00:10:16.149Z,85.41
2023-05-18T00:12:44.921Z,85.06
2023-05-18T00:15:13.200Z,84.54
2023-05-18T00:17:42.594Z,84.12
2023-05-18T00:20:12.205Z,85.32
2023-05-18T00:22:42.687Z,84.35
2023-05-18T00:25:11.090Z,84.72
2023-05-18T00:27:40.725Z,85.06
2023-05-18T00:30:10.117Z,85.39
2023-05-18T00:32:38.471Z,84.57
2023-05-18T00:35:07.905Z,84.58
2023-05-18T00:37:36.284Z,85.06
2023-05-18T00:40:06.754Z,84.65
2023-05-18T00:42:35.053Z,85.28
2023-05-18T00:45:05.666Z,84.57
2023-05-18T00:47:34.001Z,84.27
2023-05-18T00:50:02.512Z,84.70
2023-05-18T00:52:32.863Z,84.24
2023-05-18T00:55:01.558Z,84.30
2023-05-18T00:57:29.863Z,83.82
2023-05-18T00:59:59.004Z,83.81
2023-05-18T01:02:30.662Z,83.55
2023-05-18T01:05:00.648Z,83.54
2023-05-18T01:07:29.641Z,83.96
2023-05-18T01:09:58.207Z,83.04
2023-05-18T01:12:31.267Z,83.78
2023-05-18T01:15:09.706Z,82.49
2023-05-18T01:17:54.983Z,83.62
2023-05-18T01:20:37.892Z,82.52
2023-05-18T01:23:55.598Z,82.63
2023-05-18T01:26:31.542Z,83.46
2023-05-18T01:29:06.485Z,82.61
2023-05-18T01:31:35.856Z,82.83
2023-05-18T01:34:04.640Z,82.81
2023-05-18T01:36:33.259Z,82.38
2023-05-18T01:39:02.688Z,82.88
2023-05-18T01:41:36.670Z,82.80
2023-05-18T01:44:15.760Z,82.05
2023-05-18T01:46:51.209Z,83.00
2023-05-18T01:49:32.287Z,82.56
2023-05-18T01:52:06.245Z,82.57
2023-05-18T01:54:37.718Z,82.55
2023-05-18T01:57:10.764Z,82.03
2023-05-18T01:59:39.795Z,82.81
2023-05-18T02:02:08.187Z,82.84
2023-05-18T02:04:37.809Z,81.95
2023-05-18T02:07:06.189Z,82.90
2023-05-18T02:09:34.519Z,83.24
2023-05-18T02:12:02.909Z,82.37
2023-05-18T02:14:33.811Z,82.39
2023-05-18T02:17:02.122Z,81.60
2023-05-18T02:19:31.474Z,82.50
2023-05-18T02:21:59.871Z,83.29
2023-05-18T02:24:28.186Z,82.53
2023-05-18T02:26:56.449Z,82.84
2023-05-18T02:29:24.721Z,83.82
2023-05-18T02:31:54.466Z,83.96
2023-05-18T02:34:24.678Z,82.70
2023-05-18T02:36:53.544Z,83.03
2023-05-18T02:39:21.825Z,82.72
2023-05-18T02:41:50.252Z,82.70
2023-05-18T02:44:18.505Z,82.79
2023-05-18T02:46:46.785Z,83.21
2023-05-18T02:49:16.419Z,84.09
2023-05-18T02:51:44.783Z,84.31
2023-05-18T02:54:13.788Z,83.19
2023-05-18T02:56:43.533Z,84.18
2023-05-18T02:59:31.322Z,84.12
2023-05-18T03:01:59.594Z,82.75
2023-05-18T03:04:29.297Z,84.43
2023-05-18T03:07:02.669Z,83.92
2023-05-18T03:09:31.108Z,83.30
2023-05-18T03:11:59.379Z,84.21
2023-05-18T03:14:27.720Z,83.62
2023-05-18T03:16:57.991Z,84.16
2023-05-18T03:19:28.193Z,83.49
2023-05-18T03:21:57.926Z,84.00
2023-05-18T03:24:30.193Z,83.46
2023-05-18T03:27:00.953Z,83.27
2023-05-18T03:29:31.327Z,83.53
2023-05-18T03:32:01.430Z,83.41
2023-05-18T03:34:31.076Z,83.79
2023-05-18T03:37:00.239Z,83.36
2023-05-18T03:39:28.635Z,84.44
2023-05-18T03:41:56.877Z,84.86
2023-05-18T03:44:25.582Z,83.98
2023-05-18T03:46:54.118Z,84.64
2023-05-18T03:49:22.933Z,85.28
2023-05-18T03:51:54.378Z,84.92
2023-05-18T03:54:23.135Z,85.59
2023-05-18T03:56:54.225Z,85.88
2023-05-18T03:59:22.497Z,85.89
2023-05-18T04:01:53.987Z,86.46
2023-05-18T04:04:48.534Z,85.45
2023-05-18T04:07:18.543Z,86.00
2023-05-18T04:09:47.317Z,85.62
2023-05-18T04:12:15.612Z,86.88
2023-05-18T04:14:49.264Z,86.50
2023-05-18T04:17:18.175Z,86.09
2023-05-18T04:19:46.610Z,86.40
2023-05-18T04:22:15.230Z,85.46
2023-05-18T04:24:45.819Z,85.60
2023-05-18T04:27:14.514Z,85.18
2023-05-18T04:29:43.927Z,85.36
2023-05-18T04:32:12.675Z,83.86
2023-05-18T04:34:42.582Z,83.73
2023-05-18T04:37:10.866Z,84.39
2023-05-18T04:39:42.295Z,83.74
2023-05-18T04:42:14.640Z,83.80
2023-05-18T04:44:44.305Z,85.06
2023-05-18T04:47:12.813Z,83.85
2023-05-18T04:49:41.109Z,84.65
2023-05-18T04:52:10.392Z,83.98
2023-05-18T04:54:41.210Z,84.48
2023-05-18T04:57:09.883Z,83.86
2023-05-18T04:59:39.909Z,83.10
2023-05-18T05:02:08.753Z,82.59
2023-05-18T05:04:37.059Z,83.71
2023-05-18T05:07:05.898Z,83.01
2023-05-18T05:09:34.317Z,82.43
2023-05-18T05:12:02.636Z,82.01
2023-05-18T05:14:30.969Z,81.66
2023-05-18T05:17:00.919Z,81.52
2023-05-18T05:19:29.341Z,81.05
2023-05-18T05:21:57.747Z,81.10
2023-05-18T05:24:26.290Z,80.48
2023-05-18T05:26:54.561Z,80.53
2023-05-18T05:29:23.091Z,80.30
2023-05-18T05:31:51.584Z,80.16
2023-05-18T05:34:21.406Z,78.86
2023-05-18T05:36:49.750Z,79.74
2023-05-18T05:39:18.335Z,79.53
2023-05-18T05:41:46.700Z,78.61
2023-05-18T05:44:15.049Z,79.37
2023-05-18T05:46:43.445Z,78.74
2023-05-18T05:49:12.658Z,79.10
2023-05-18T05:51:42.416Z,79.73
2023-05-18T05:54:10.947Z,78.63
2023-05-18T05:56:39.613Z,78.41
2023-05-18T05:59:07.950Z,78.76
2023-05-18T06:01:36.387Z,79.26
2023-05-18T06:04:06.575Z,78.56
2023-05-18T06:06:35.147Z,78.19
2023-05-18T06:09:05.933Z,78.28
2023-05-18T06:11:34.802Z,77.10
2023-05-18T06:14:03.762Z,76.38
2023-05-18T06:16:32.213Z,76.25
2023-05-18T06:19:01.589Z,75.47
2023-05-18T06:21:30.057Z,75.50
2023-05-18T06:24:01.435Z,73.98
2023-05-18T06:26:38.130Z,74.88
2023-05-18T06:29:17.195Z,75.62
2023-05-18T06:32:06.708Z,73.62
2023-05-18T06:34:45.798Z,74.44
2023-05-18T06:37:14.277Z,73.82
2023-05-18T06:39:42.607Z,72.95
2023-05-18T06:42:12.363Z,73.17
2023-05-18T06:44:51.454Z,72.99
2023-05-18T06:47:22.657Z,71.79
2023-05-18T06:49:51.187Z,71.72
2023-05-18T06:52:19.650Z,71.06
2023-05-18T06:54:48.085Z,70.79
2023-05-18T06:57:18.279Z,69.66
2023-05-18T06:59:50.541Z,69.67
2023-05-18T07:02:18.958Z,69.07
2023-05-18T07:04:47.810Z,69.08
2023-05-18T07:07:16.751Z,68.10
2023-05-18T07:09:45.758Z,67.86
2023-05-18T07:12:14.182Z,68.12
2023-05-18T07:14:43.890Z,69.00
2023-05-18T07:17:12.186Z,71.24
2023-05-18T07:19:40.484Z,68.52
2023-05-18T07:22:08.945Z,69.02
2023-05-18T07:24:37.222Z,67.95
2023-05-18T07:27:06.177Z,67.33
2023-05-18T07:29:35.378Z,66.70
2023-05-18T07:32:05.927Z,66.47
2023-05-18T07:34:34.221Z,67.74
2023-05-18T07:37:03.200Z,68.36
2023-05-18T07:39:31.483Z,67.96
2023-05-18T07:42:00.808Z,67.30
2023-05-18T07:44:30.255Z,66.79
2023-05-18T07:47:01.649Z,64.02
2023-05-18T07:49:31.785Z,63.14
2023-05-18T07:52:00.509Z,63.60
2023-05-18T07:54:28.768Z,64.71
2023-05-18T07:56:59.185Z,66.19
2023-05-18T07:59:28.876Z,64.84
2023-05-18T08:01:59.029Z,63.41
2023-05-18T08:04:32.588Z,64.59
2023-05-18T08:07:02.121Z,64.68
2023-05-18T08:09:30.402Z,65.30
2023-05-18T08:11:59.235Z,64.61
2023-05-18T08:14:27.562Z,63.74
2023-05-18T08:16:55.847Z,60.59
2023-05-18T08:19:24.272Z,61.46
2023-05-18T08:21:53.892Z,59.69
2023-05-18T08:24:22.310Z,61.57
2023-05-18T08:26:51.882Z,59.36
2023-05-18T08:29:20.209Z,59.69
2023-05-18T08:31:49.610Z,62.94
2023-05-18T08:34:18.554Z,60.42
2023-05-18T08:36:47.211Z,60.37
2023-05-18T08:39:16.856Z,60.04
2023-05-18T08:41:53.665Z,59.21
2023-05-18T08:44:23.866Z,59.67
2023-05-18T08:46:53.654Z,56.11
2023-05-18T08:49:23.007Z,57.87
2023-05-18T08:51:58.493Z,61.42
2023-05-18T08:54:28.477Z,56.45
2023-05-18T08:56:57.385Z,59.10
2023-05-18T08:59:28.224Z,60.25
2023-05-18T09:01:56.961Z,57.03
2023-05-18T09:04:25.560Z,56.28
2023-05-18T09:06:56.420Z,57.53
2023-05-18T09:09:27.660Z,58.00
2023-05-18T09:11:58.542Z,57.38
2023-05-18T09:14:26.998Z,57.22
2023-05-18T09:16:55.835Z,56.99
2023-05-18T09:19:24.743Z,56.70
2023-05-18T09:21:53.214Z,57.02
2023-05-18T09:24:24.541Z,55.57
2023-05-18T09:26:54.575Z,55.49
2023-05-18T09:29:24.260Z,56.92
2023-05-18T09:31:54.581Z,56.20
2023-05-18T09:34:24.465Z,56.55
2023-05-18T09:36:54.013Z,57.32
2023-05-18T09:39:22.449Z,57.58
2023-05-18T09:41:58.203Z,56.84
2023-05-18T09:44:36.334Z,54.80
2023-05-18T09:47:09.178Z,53.63
2023-05-18T09:49:38.641Z,55.54
2023-05-18T09:52:10.890Z,53.92
2023-05-18T09:54:39.194Z,54.57
2023-05-18T09:57:11.250Z,54.17
2023-05-18T09:59:39.897Z,55.65
2023-05-18T10:02:09.051Z,55.84
2023-05-18T10:04:40.309Z,57.53
2023-05-18T10:07:13.551Z,57.42
2023-05-18T10:09:42.889Z,56.15
2023-05-18T10:12:18.705Z,54.58
2023-05-18T10:14:47.981Z,54.36
2023-05-18T10:17:17.822Z,54.76
2023-05-18T10:19:47.439Z,54.94
2023-05-18T10:22:18.534Z,54.40
2023-05-18T10:24:51.889Z,58.65
2023-05-18T10:27:26.639Z,58.06
2023-05-18T10:29:56.082Z,55.56
2023-05-18T10:32:26.704Z,55.21
2023-05-18T10:34:57.296Z,54.11
2023-05-18T10:37:30.505Z,54.78
2023-05-18T10:40:01.316Z,56.08
2023-05-18T10:42:31.874Z,53.85
2023-05-18T10:45:02.040Z,53.52
2023-05-18T10:47:30.761Z,55.82
2023-05-18T10:50:00.881Z,55.31
2023-05-18T10:52:32.380Z,54.50
2023-05-18T10:55:01.165Z,54.52
2023-05-18T10:57:38.215Z,55.55
2023-05-18T11:00:09.182Z,54.85
2023-05-18T11:02:42.448Z,53.98
2023-05-18T11:05:12.477Z,56.46
2023-05-18T11:07:41.641Z,53.38
2023-05-18T11:10:12.290Z,53.46
2023-05-18T11:12:43.041Z,53.49
2023-05-18T11:15:12.273Z,54.84
2023-05-18T11:17:40.996Z,54.02
2023-05-18T11:20:18.313Z,52.88
2023-05-18T11:22:49.043Z,54.59
2023-05-18T11:25:44.428Z,53.63
2023-05-18T11:28:15.040Z,53.02
2023-05-18T11:30:51.808Z,52.04
2023-05-18T11:33:26.453Z,51.78
2023-05-18T11:36:14.732Z,52.88
2023-05-18T11:38:53.749Z,52.69
2023-05-18T11:41:36.684Z,50.15
2023-05-18T11:44:16.080Z,49.97
2023-05-18T11:46:57.339Z,52.05
2023-05-18T11:49:28.498Z,52.45
2023-05-18T11:52:19.570Z,50.20
2023-05-18T11:54:53.537Z,50.55
2023-05-18T11:57:26.566Z,51.75
2023-05-18T11:59:59.068Z,51.99
2023-05-18T12:02:32.723Z,51.47
2023-05-18T12:05:08.639Z,50.22
2023-05-18T12:08:02.558Z,49.72
2023-05-18T12:10:31.340Z,48.46
2023-05-18T12:13:01.062Z,48.38
2023-05-18T12:15:32.573Z,51.16
2023-05-18T12:18:01.027Z,49.33
2023-05-18T12:20:31.062Z,49.77
2023-05-18T12:22:59.966Z,49.77
2023-05-18T12:25:29.105Z,49.42
2023-05-18T12:27:57.843Z,51.62
2023-05-18T12:30:34.530Z,50.10
2023-05-18T12:33:04.946Z,50.34
2023-05-18T12:35:33.947Z,51.08
2023-05-18T12:38:02.852Z,48.12
2023-05-18T12:40:44.412Z,48.05
2023-05-18T12:43:13.290Z,46.07
2023-05-18T12:45:41.911Z,49.02
2023-05-18T12:48:14.961Z,48.43
2023-05-18T12:50:48.411Z,49.52
2023-05-18T12:53:17.152Z,47.37
2023-05-18T12:55:45.505Z,48.47
2023-05-18T12:58:16.893Z,48.47
2023-05-18T13:00:47.609Z,48.45
2023-05-18T13:03:20.252Z,48.74
2023-05-18T13:06:05.700Z,47.56
2023-05-18T13:08:35.596Z,48.04
2023-05-18T13:11:12.604Z,47.47
2023-05-18T13:14:02.057Z,47.09
2023-05-18T13:16:30.939Z,47.27
2023-05-18T13:19:06.418Z,48.97
2023-05-18T13:21:35.649Z,49.75
2023-05-18T13:24:04.369Z,47.77
2023-05-18T13:26:32.979Z,46.92
2023-05-18T13:29:01.683Z,47.77
2023-05-18T13:31:30.419Z,49.92
2023-05-18T13:34:00.610Z,48.93
2023-05-18T13:36:29.734Z,48.05
2023-05-18T13:38:58.137Z,48.12
2023-05-18T13:41:27.912Z,46.60
2023-05-18T13:43:56.110Z,46.74
2023-05-18T13:46:24.391Z,48.86
2023-05-18T13:48:52.666Z,48.49
2023-05-18T13:51:22.253Z,47.71
2023-05-18T13:53:50.527Z,47.01
2023-05-18T13:56:18.836Z,47.69
2023-05-18T13:58:47.393Z,47.17
2023-05-18T14:01:17.861Z,47.27
2023-05-18T14:03:46.270Z,47.56
2023-05-18T14:06:17.215Z,47.31
2023-05-18T14:08:46.859Z,46.82
2023-05-18T14:11:15.178Z,48.30
2023-05-18T14:13:43.471Z,48.26
2023-05-18T14:16:12.066Z,47.76
2023-05-18T14:18:40.419Z,49.43
2023-05-18T14:21:09.311Z,47.67
2023-05-18T14:23:37.513Z,46.16
2023-05-18T14:26:07.148Z,46.80
2023-05-18T14:28:35.393Z,46.45
2023-05-18T14:31:08.194Z,45.29
2023-05-18T14:33:36.398Z,47.51
2023-05-18T14:36:05.019Z,46.62
2023-05-18T14:38:33.233Z,45.39
2023-05-18T14:41:01.404Z,44.47
2023-05-18T14:43:30.983Z,47.27
2023-05-18T14:46:08.124Z,48.07
2023-05-18T14:48:37.391Z,47.98
2023-05-18T14:51:05.989Z,48.82
2023-05-18T14:53:34.295Z,45.62
2023-05-18T14:56:06.119Z,46.14
2023-05-18T14:58:36.268Z,47.11
2023-05-18T15:01:04.578Z,46.24
2023-05-18T15:03:32.971Z,47.27
2023-05-18T15:06:01.374Z,47.01
2023-05-18T15:08:29.675Z,46.29
2023-05-18T15:10:58.270Z,46.03
2023-05-18T15:13:26.594Z,46.09
2023-05-18T15:15:56.972Z,46.95
2023-05-18T15:18:25.932Z,46.96
2023-05-18T15:20:54.209Z,47.12
2023-05-18T15:23:23.124Z,47.16
2023-05-18T15:25:52.467Z,46.70
2023-05-18T15:28:22.616Z,45.86
2023-05-18T15:30:56.036Z,46.60
2023-05-18T15:33:30.663Z,47.15
2023-05-18T15:35:59.770Z,47.15
2023-05-18T15:38:29.664Z,46.89
2023-05-18T15:40:58.208Z,46.84
2023-05-18T15:43:26.679Z,47.70
2023-05-18T15:45:55.053Z,47.53
2023-05-18T15:48:23.404Z,47.01
2023-05-18T15:50:53.542Z,46.50
2023-05-18T15:53:21.753Z,46.63
2023-05-18T15:55:50.875Z,46.25
2023-05-18T15:58:19.399Z,46.22
2023-05-18T16:00:48.483Z,46.61
2023-05-18T16:03:17.492Z,46.52
2023-05-18T16:05:50.275Z,46.49
2023-05-18T16:08:20.544Z,47.01
2023-05-18T16:10:48.817Z,46.92
2023-05-18T16:13:17.220Z,46.84
2023-05-18T16:15:46.160Z,46.90
2023-05-18T16:18:14.663Z,46.48
2023-05-18T16:20:42.957Z,44.94
2023-05-18T16:23:11.346Z,46.21
2023-05-18T16:25:40.933Z,45.82
2023-05-18T16:28:09.280Z,46.24
2023-05-18T16:30:37.568Z,46.08
2023-05-18T16:33:05.956Z,46.56
2023-05-18T16:35:34.336Z,47.87
2023-05-18T16:38:02.699Z,48.49
2023-05-18T16:40:31.225Z,48.59
2023-05-18T16:43:01.036Z,47.39
2023-05-18T16:45:29.340Z,47.32
2023-05-18T16:47:57.870Z,48.87
2023-05-18T16:50:27.803Z,46.10
2023-05-18T16:52:56.189Z,47.52
2023-05-18T16:55:26.144Z,47.02
2023-05-18T16:57:54.413Z,46.66
2023-05-18T17:00:24.432Z,47.40
2023-05-18T17:02:53.401Z,47.86
2023-05-18T17:05:22.975Z,46.45
2023-05-18T17:07:52.655Z,45.93
2023-05-18T17:10:21.103Z,46.43
2023-05-18T17:12:49.456Z,46.32
2023-05-18T17:15:17.751Z,45.97
2023-05-18T17:17:47.430Z,45.92
2023-05-18T17:20:15.758Z,46.45
2023-05-18T17:22:43.983Z,46.31
2023-05-18T17:25:12.513Z,46.00
2023-05-18T17:27:41.104Z,47.57
2023-05-18T17:30:10.647Z,47.40
2023-05-18T17:32:39.774Z,46.61
2023-05-18T17:35:13.329Z,47.16
2023-05-18T17:37:42.412Z,48.01
2023-05-18T17:40:13.849Z,45.32
2023-05-18T17:42:42.137Z,45.10
2023-05-18T17:45:11.859Z,46.14
2023-05-18T17:47:41.822Z,46.06
2023-05-18T17:50:14.153Z,45.69
2023-05-18T17:52:42.532Z,46.08
2023-05-18T17:55:11.017Z,45.90
2023-05-18T17:57:45.705Z,46.05
2023-05-18T18:00:15.870Z,46.96
2023-05-18T18:02:45.879Z,46.11
2023-05-18T18:05:22.940Z,46.19
2023-05-18T18:07:52.479Z,46.33
2023-05-18T18:10:20.812Z,45.93
2023-05-18T18:12:49.072Z,46.47
2023-05-18T18:15:18.305Z,46.83
2023-05-18T18:17:47.068Z,47.56
2023-05-18T18:20:16.290Z,48.65
2023-05-18T18:22:47.472Z,47.01
2023-05-18T18:25:15.967Z,47.08
2023-05-18T18:27:44.216Z,47.64
2023-05-18T18:30:14.480Z,47.58
2023-05-18T18:32:43.276Z,47.97
2023-05-18T18:35:11.796Z,48.76
2023-05-18T18:37:40.275Z,49.07
2023-05-18T18:40:12.200Z,50.88
2023-05-18T18:42:40.494Z,50.14
2023-05-18T18:45:09.710Z,51.70
2023-05-18T18:47:39.212Z,53.28
2023-05-18T18:50:08.858Z,53.25
2023-05-18T18:52:37.710Z,53.99
2023-05-18T18:55:06.954Z,55.14
2023-05-18T18:57:36.595Z,55.03
2023-05-18T19:00:10.978Z,55.56
2023-05-18T19:02:39.466Z,55.75
2023-05-18T19:05:10.098Z,55.97
2023-05-18T19:07:38.694Z,55.93
2023-05-18T19:10:10.160Z,56.11
2023-05-18T19:12:39.787Z,56.97
2023-05-18T19:15:09.987Z,57.78
2023-05-18T19:17:38.419Z,58.01
2023-05-18T19:20:08.822Z,58.19
2023-05-18T19:22:37.458Z,58.44
2023-05-18T19:25:06.729Z,58.68
2023-05-18T19:27:34.983Z,61.11
2023-05-18T19:30:05.451Z,62.81
2023-05-18T19:32:33.749Z,63.18
2023-05-18T19:35:02.085Z,62.29
2023-05-18T19:37:30.333Z,61.86
2023-05-18T19:39:58.621Z,60.99
2023-05-18T19:42:26.913Z,61.29
2023-05-18T19:44:55.224Z,61.05
2023-05-18T19:47:24.928Z,62.39
2023-05-18T19:49:53.245Z,63.46
2023-05-18T19:52:21.630Z,64.61
2023-05-18T19:54:50.539Z,64.49
2023-05-18T19:57:20.896Z,65.36
2023-05-18T19:59:49.254Z,65.49
2023-05-18T20:02:17.555Z,66.17
2023-05-18T20:04:48.402Z,65.85
2023-05-18T20:07:17.702Z,66.04
2023-05-18T20:09:46.041Z,66.49
2023-05-18T20:12:14.360Z,65.99
2023-05-18T20:14:43.462Z,66.91
2023-05-18T20:17:11.861Z,67.23
2023-05-18T20:19:40.791Z,67.86
2023-05-18T20:22:10.996Z,67.14
2023-05-18T20:24:43.364Z,67.94
2023-05-18T20:27:11.967Z,68.05
2023-05-18T20:29:40.166Z,68.53
2023-05-18T20:32:08.940Z,69.56
2023-05-18T20:34:37.308Z,69.34
2023-05-18T20:37:09.897Z,69.14
2023-05-18T20:39:42.472Z,69.77
2023-05-18T20:42:12.522Z,68.66
2023-05-18T20:44:43.351Z,69.23
2023-05-18T20:47:12.141Z,69.37
2023-05-18T20:49:40.405Z,68.14
2023-05-18T20:52:08.742Z,67.91
2023-05-18T20:54:37.098Z,67.91
2023-05-18T20:57:07.022Z,65.82
2023-05-18T20:59:35.293Z,64.29
2023-05-18T21:02:04.925Z,64.03
2023-05-18T21:04:33.276Z,63.46
2023-05-18T21:07:01.796Z,63.80
2023-05-18T21:09:31.481Z,63.58
2023-05-18T21:11:59.826Z,64.15
2023-05-18T21:14:29.411Z,64.39
2023-05-18T21:16:57.687Z,64.39
2023-05-18T21:19:26.305Z,64.42
2023-05-18T21:21:54.703Z,65.56
2023-05-18T21:24:22.925Z,66.20
2023-05-18T21:26:51.302Z,66.73
2023-05-18T21:29:19.522Z,65.63
2023-05-18T21:31:49.616Z,66.97
2023-05-18T21:34:17.938Z,66.26
2023-05-18T21:36:46.290Z,66.34
2023-05-18T21:39:14.996Z,66.96
2023-05-18T21:41:44.441Z,66.32
2023-05-18T21:44:12.901Z,66.98
2023-05-18T21:46:41.329Z,66.97
2023-05-18T21:49:11.456Z,67.19
2023-05-18T21:51:39.839Z,66.93
2023-05-18T21:54:08.128Z,67.03
2023-05-18T21:56:36.907Z,67.39
2023-05-18T21:59:05.265Z,67.38
2023-05-18T22:01:33.696Z,67.99
2023-05-18T22:06:58.817Z,68.18
2023-05-18T22:09:27.046Z,67.44
2023-05-18T22:11:55.303Z,68.22
2023-05-18T22:14:23.563Z,68.76
2023-05-18T22:16:51.866Z,68.34
2023-05-18T22:19:20.244Z,68.87
2023-05-18T22:21:48.500Z,68.80
2023-05-18T22:24:18.068Z,68.50
2023-05-18T22:26:46.491Z,69.03
2023-05-18T22:29:14.874Z,69.91
2023-05-18T22:31:43.186Z,69.75
2023-05-18T22:34:11.509Z,69.43
2023-05-18T22:36:39.809Z,69.35
2023-05-18T22:39:08.885Z,69.19
2023-05-18T22:41:38.566Z,69.96
2023-05-18T22:44:07.009Z,69.88
2023-05-18T22:46:35.367Z,70.83
2023-05-18T22:49:05.422Z,69.79
2023-05-18T22:51:35.701Z,70.21
2023-05-18T22:54:04.094Z,70.67
2023-05-18T22:56:32.399Z,70.32
2023-05-18T22:59:02.198Z,70.61
2023-05-18T23:01:31.285Z,70.00
2023-05-18T23:04:00.532Z,70.13
2023-05-18T23:06:31.640Z,70.13
2023-05-18T23:09:00.791Z,70.15
2023-05-18T23:11:30.982Z,70.18
2023-05-18T23:14:02.563Z,70.34
2023-05-18T23:16:32.333Z,70.41
2023-05-18T23:19:01.788Z,69.71
2023-05-18T23:21:31.080Z,69.73
2023-05-18T23:23:59.842Z,70.11
2023-05-18T23:26:28.288Z,69.42
2023-05-18T23:28:56.612Z,69.53
2023-05-18T23:31:24.921Z,69.51
2023-05-18T23:33:55.713Z,70.27
2023-05-18T23:36:27.370Z,70.04
2023-05-18T23:38:59.012Z,69.58
2023-05-18T23:41:29.138Z,70.04
2023-05-18T23:43:58.455Z,70.00
2023-05-18T23:46:27.768Z,69.78
2023-05-18T23:48:59.729Z,69.40
2023-05-18T23:51:33.060Z,70.26
2023-05-18T23:54:04.231Z,69.89
2023-05-18T23:56:34.245Z,70.20
2023-05-18T23:59:03.292Z,70.19
